createdAt,value
2023-01-29T00:00:25.925Z,-1.14
2023-01-29T00:01:25.896Z,-1.11
2023-01-29T00:02:25.940Z,-1.14
2023-01-29T00:03:25.956Z,-1.26
2023-01-29T00:04:25.865Z,-1.19
2023-01-29T00:05:28.117Z,-1.23
2023-01-29T00:06:26.853Z,-1.23
2023-01-29T00:07:25.850Z,-1.29
2023-01-29T00:08:25.834Z,-1.15
2023-01-29T00:09:25.827Z,-1.20
2023-01-29T00:10:25.852Z,-1.20
2023-01-29T00:11:25.817Z,-1.35
2023-01-29T00:12:25.814Z,-1.25
2023-01-29T00:13:25.799Z,-1.38
2023-01-29T00:14:25.795Z,-1.25
2023-01-29T00:15:25.818Z,-1.48
2023-01-29T00:16:25.804Z,-1.35
2023-01-29T00:17:25.777Z,-1.38
2023-01-29T00:18:25.765Z,-1.47
2023-01-29T00:19:25.848Z,-1.53
2023-01-29T00:20:25.800Z,-1.44
2023-01-29T00:21:25.756Z,-1.56
2023-01-29T00:22:25.744Z,-1.64
2023-01-29T00:23:25.729Z,-1.69
2023-01-29T00:24:25.845Z,-1.62
2023-01-29T00:25:25.747Z,-1.62
2023-01-29T00:26:25.781Z,-1.68
2023-01-29T00:27:25.699Z,-1.72
2023-01-29T00:28:25.716Z,-1.64
2023-01-29T00:29:25.685Z,-1.80
2023-01-29T00:30:25.680Z,-1.86
2023-01-29T00:31:25.826Z,-1.83
2023-01-29T00:32:25.691Z,-1.86
2023-01-29T00:33:25.659Z,-1.86
2023-01-29T00:34:25.676Z,-1.84
2023-01-29T00:35:25.645Z,-2.01
2023-01-29T00:36:25.669Z,-1.89
2023-01-29T00:37:25.626Z,-1.94
2023-01-29T00:38:25.625Z,-2.00
2023-01-29T00:39:31.406Z,-1.95
2023-01-29T00:40:27.600Z,-2.00
2023-01-29T00:41:25.629Z,-2.00
2023-01-29T00:42:25.593Z,-2.05
2023-01-29T00:43:25.590Z,-2.05
2023-01-29T00:44:25.588Z,-2.02
2023-01-29T00:45:25.606Z,-2.05
2023-01-29T00:46:25.647Z,-2.10
2023-01-29T00:47:25.594Z,-2.16
2023-01-29T00:48:25.545Z,-2.12
2023-01-29T00:49:25.550Z,-2.15
2023-01-29T00:50:25.537Z,-2.23
2023-01-29T00:51:25.551Z,-2.25
2023-01-29T00:52:25.544Z,-2.28
2023-01-29T00:53:25.517Z,-2.32
2023-01-29T00:54:25.510Z,-2.40
2023-01-29T00:55:25.497Z,-2.26
2023-01-29T00:56:25.518Z,-2.30
2023-01-29T00:57:25.509Z,-2.30
2023-01-29T00:58:25.482Z,-2.38
2023-01-29T00:59:25.490Z,-2.47
2023-01-29T01:00:25.466Z,-2.47
2023-01-29T01:01:25.482Z,-2.45
2023-01-29T01:02:25.486Z,-2.55
2023-01-29T01:03:25.447Z,-2.53
2023-01-29T01:04:25.441Z,-2.52
2023-01-29T01:05:25.429Z,-2.45
2023-01-29T01:06:25.455Z,-2.56
2023-01-29T01:07:25.415Z,-2.53
2023-01-29T01:08:25.414Z,-2.55
2023-01-29T01:09:25.426Z,-2.58
2023-01-29T01:10:25.421Z,-2.56
2023-01-29T01:11:25.421Z,-2.59
2023-01-29T01:12:25.402Z,-2.60
2023-01-29T01:13:26.433Z,-2.63
2023-01-29T01:14:25.376Z,-2.47
2023-01-29T01:15:25.363Z,-2.63
2023-01-29T01:16:25.437Z,-2.63
2023-01-29T01:17:25.345Z,-2.66
2023-01-29T01:18:25.347Z,-2.78
2023-01-29T01:19:25.331Z,-2.59
2023-01-29T01:20:25.379Z,-2.69
2023-01-29T01:21:25.339Z,-2.77
2023-01-29T01:22:25.307Z,-2.66
2023-01-29T01:23:25.297Z,-2.62
2023-01-29T01:24:25.369Z,-2.76
2023-01-29T01:25:25.290Z,-2.80
2023-01-29T01:26:25.305Z,-2.81
2023-01-29T01:27:25.267Z,-2.74
2023-01-29T01:28:25.269Z,-2.88
2023-01-29T01:29:25.266Z,-2.94
2023-01-29T01:30:25.274Z,-2.89
2023-01-29T01:31:25.361Z,-2.86
2023-01-29T01:32:25.237Z,-2.86
2023-01-29T01:33:25.230Z,-2.89
2023-01-29T01:34:25.216Z,-2.86
2023-01-29T01:35:25.233Z,-2.92
2023-01-29T01:36:25.205Z,-2.84
2023-01-29T01:37:25.221Z,-2.95
2023-01-29T01:38:25.186Z,-2.89
2023-01-29T01:39:25.273Z,-2.98
2023-01-29T01:40:25.188Z,-2.98
2023-01-29T01:41:25.167Z,-3.04
2023-01-29T01:42:25.181Z,-2.98
2023-01-29T01:43:25.154Z,-2.99
2023-01-29T01:44:25.171Z,-3.06
2023-01-29T01:45:25.137Z,-3.01
2023-01-29T01:46:25.137Z,-2.98
2023-01-29T01:47:25.151Z,-3.09
2023-01-29T01:48:25.113Z,-3.01
2023-01-29T01:49:25.131Z,-3.06
2023-01-29T01:50:25.122Z,-3.06
2023-01-29T01:51:25.101Z,-3.10
2023-01-29T01:52:25.123Z,-3.12
2023-01-29T01:53:25.083Z,-3.23
2023-01-29T01:54:25.078Z,-3.12
2023-01-29T01:55:25.078Z,-3.20
2023-01-29T01:56:25.075Z,-3.12
2023-01-29T01:57:25.137Z,-3.25
2023-01-29T01:58:25.047Z,-3.28
2023-01-29T01:59:25.036Z,-3.22
2023-01-29T02:00:25.029Z,-3.22
2023-01-29T02:01:25.900Z,-3.20
2023-01-29T02:02:26.066Z,-3.25
2023-01-29T02:03:25.009Z,-3.28
2023-01-29T02:04:25.002Z,-3.22
2023-01-29T02:05:25.030Z,-3.23
2023-01-29T02:06:24.987Z,-3.25
2023-01-29T02:07:25.009Z,-3.31
2023-01-29T02:08:24.974Z,-3.27
2023-01-29T02:09:24.977Z,-3.22
2023-01-29T02:10:24.967Z,-3.28
2023-01-29T02:11:24.959Z,-3.23
2023-01-29T02:12:24.950Z,-3.22
2023-01-29T02:13:24.955Z,-3.31
2023-01-29T02:14:24.923Z,-3.20
2023-01-29T02:15:24.958Z,-3.23
2023-01-29T02:16:24.909Z,-3.19
2023-01-29T02:17:24.942Z,-3.28
2023-01-29T02:18:24.925Z,-3.19
2023-01-29T02:19:24.884Z,-3.22
2023-01-29T02:20:24.881Z,-3.17
2023-01-29T02:21:24.880Z,-3.20
2023-01-29T02:22:24.867Z,-3.17
2023-01-29T02:23:24.889Z,-3.23
2023-01-29T02:24:24.922Z,-3.17
2023-01-29T02:25:24.846Z,-3.20
2023-01-29T02:26:24.849Z,-3.22
2023-01-29T02:27:24.834Z,-3.23
2023-01-29T02:28:24.850Z,-3.33
2023-01-29T02:29:24.816Z,-3.23
2023-01-29T02:30:24.811Z,-3.40
2023-01-29T02:31:24.851Z,-3.45
2023-01-29T02:32:24.795Z,-3.31
2023-01-29T02:33:24.817Z,-3.48
2023-01-29T02:34:24.786Z,-3.54
2023-01-29T02:35:24.775Z,-3.41
2023-01-29T02:36:24.769Z,-3.44
2023-01-29T02:37:24.760Z,-3.41
2023-01-29T02:38:24.776Z,-3.48
2023-01-29T02:39:24.749Z,-3.44
2023-01-29T02:40:24.737Z,-3.33
2023-01-29T02:41:24.734Z,-3.44
2023-01-29T02:42:24.730Z,-3.40
2023-01-29T02:43:24.739Z,-3.37
2023-01-29T02:44:24.729Z,-3.48
2023-01-29T02:45:24.700Z,-3.40
2023-01-29T02:46:24.694Z,-3.44
2023-01-29T02:47:24.693Z,-3.49
2023-01-29T02:48:24.705Z,-3.45
2023-01-29T02:49:24.680Z,-3.54
2023-01-29T02:50:24.673Z,-3.63
2023-01-29T02:51:24.659Z,-3.56
2023-01-29T02:52:24.652Z,-3.58
2023-01-29T02:53:24.675Z,-3.52
2023-01-29T02:54:24.643Z,-3.54
2023-01-29T02:55:24.658Z,-3.52
2023-01-29T02:56:24.625Z,-3.54
2023-01-29T02:57:24.613Z,-3.55
2023-01-29T02:58:24.642Z,-3.40
2023-01-29T02:59:24.607Z,-3.35
2023-01-29T03:00:24.584Z,-3.48
2023-01-29T03:01:25.708Z,-3.46
2023-01-29T03:02:24.582Z,-3.35
2023-01-29T03:03:24.602Z,-3.38
2023-01-29T03:04:24.564Z,-3.33
2023-01-29T03:05:24.557Z,-3.28
2023-01-29T03:06:24.571Z,-3.25
2023-01-29T03:07:24.543Z,-3.19
2023-01-29T03:08:24.541Z,-3.25
2023-01-29T03:09:24.552Z,-3.25
2023-01-29T03:10:24.525Z,-3.17
2023-01-29T03:11:24.515Z,-3.25
2023-01-29T03:12:24.508Z,-3.20
2023-01-29T03:13:24.499Z,-3.19
2023-01-29T03:14:24.520Z,-3.16
2023-01-29T03:15:24.482Z,-3.22
2023-01-29T03:16:24.501Z,-3.15
2023-01-29T03:17:24.471Z,-3.22
2023-01-29T03:18:24.466Z,-3.13
2023-01-29T03:19:24.474Z,-3.16
2023-01-29T03:20:24.447Z,-3.13
2023-01-29T03:21:24.442Z,-3.12
2023-01-29T03:22:24.450Z,-3.22
2023-01-29T03:23:24.430Z,-3.15
2023-01-29T03:24:24.505Z,-3.09
2023-01-29T03:25:24.403Z,-3.15
2023-01-29T03:26:24.402Z,-3.15
2023-01-29T03:27:24.405Z,-3.06
2023-01-29T03:28:24.392Z,-3.13
2023-01-29T03:29:24.404Z,-3.10
2023-01-29T03:30:24.377Z,-3.09
2023-01-29T03:31:24.465Z,-3.06
2023-01-29T03:32:24.355Z,-3.01
2023-01-29T03:33:24.350Z,-3.12
2023-01-29T03:34:24.379Z,-3.02
2023-01-29T03:35:24.338Z,-3.02
2023-01-29T03:36:24.330Z,-2.95
2023-01-29T03:37:24.326Z,-2.99
2023-01-29T03:38:24.321Z,-3.02
2023-01-29T03:39:24.339Z,-3.02
2023-01-29T03:40:24.297Z,-2.95
2023-01-29T03:41:24.304Z,-2.95
2023-01-29T03:42:24.285Z,-2.95
2023-01-29T03:43:24.279Z,-2.95
2023-01-29T03:44:24.303Z,-2.88
2023-01-29T03:45:24.263Z,-2.88
2023-01-29T03:46:24.253Z,-2.97
2023-01-29T03:47:24.251Z,-2.91
2023-01-29T03:48:24.252Z,-2.88
2023-01-29T03:49:24.260Z,-2.95
2023-01-29T03:50:24.227Z,-2.89
2023-01-29T03:51:24.220Z,-2.92
2023-01-29T03:52:24.210Z,-2.81
2023-01-29T03:53:24.204Z,-2.78
2023-01-29T03:54:24.220Z,-2.83
2023-01-29T03:55:24.195Z,-2.97
2023-01-29T03:56:24.184Z,-2.86
2023-01-29T03:57:24.178Z,-2.97
2023-01-29T03:58:24.174Z,-2.89
2023-01-29T03:59:24.166Z,-2.98
2023-01-29T04:00:24.181Z,-2.99
2023-01-29T04:01:24.201Z,-2.97
2023-01-29T04:02:24.144Z,-2.99
2023-01-29T04:03:24.132Z,-2.97
2023-01-29T04:04:24.126Z,-2.98
2023-01-29T04:05:25.148Z,-2.98
2023-01-29T04:06:24.124Z,-2.89
2023-01-29T04:07:24.105Z,-2.95
2023-01-29T04:08:24.094Z,-2.97
2023-01-29T04:09:24.092Z,-3.01
2023-01-29T04:10:24.109Z,-2.94
2023-01-29T04:11:24.072Z,-2.88
2023-01-29T04:12:24.067Z,-2.83
2023-01-29T04:13:24.068Z,-2.84
2023-01-29T04:14:24.051Z,-2.88
2023-01-29T04:15:24.074Z,-2.83
2023-01-29T04:16:24.085Z,-2.86
2023-01-29T04:17:24.041Z,-2.78
2023-01-29T04:18:24.022Z,-2.78
2023-01-29T04:19:24.017Z,-2.71
2023-01-29T04:20:24.043Z,-2.73
2023-01-29T04:21:23.996Z,-2.74
2023-01-29T04:22:24.002Z,-2.73
2023-01-29T04:23:23.988Z,-2.69
2023-01-29T04:24:24.058Z,-2.58
2023-01-29T04:25:24.001Z,-2.63
2023-01-29T04:26:23.964Z,-2.66
2023-01-29T04:27:23.964Z,-2.66
2023-01-29T04:28:23.944Z,-2.62
2023-01-29T04:29:23.939Z,-2.65
2023-01-29T04:30:23.960Z,-2.70
2023-01-29T04:31:24.093Z,-2.65
2023-01-29T04:32:23.917Z,-2.62
2023-01-29T04:33:23.930Z,-2.69
2023-01-29T04:34:23.897Z,-2.59
2023-01-29T04:35:23.928Z,-2.65
2023-01-29T04:36:23.891Z,-2.63
2023-01-29T04:37:23.878Z,-2.77
2023-01-29T04:38:23.883Z,-2.73
2023-01-29T04:39:23.869Z,-2.62
2023-01-29T04:40:23.899Z,-2.70
2023-01-29T04:41:23.851Z,-2.59
2023-01-29T04:42:23.840Z,-2.65
2023-01-29T04:43:23.834Z,-2.59
2023-01-29T04:44:23.828Z,-2.66
2023-01-29T04:45:23.862Z,-2.53
2023-01-29T04:46:23.817Z,-2.52
2023-01-29T04:47:23.865Z,-2.58
2023-01-29T04:48:23.801Z,-2.73
2023-01-29T04:49:23.792Z,-2.71
2023-01-29T04:50:23.816Z,-2.60
2023-01-29T04:51:23.783Z,-2.60
2023-01-29T04:52:23.782Z,-2.76
2023-01-29T04:53:23.781Z,-2.70
2023-01-29T04:54:23.771Z,-2.74
2023-01-29T04:55:23.785Z,-2.62
2023-01-29T04:56:23.747Z,-2.63
2023-01-29T04:57:23.736Z,-2.71
2023-01-29T04:58:23.729Z,-2.71
2023-01-29T04:59:23.726Z,-2.78
2023-01-29T05:00:23.720Z,-2.70
2023-01-29T05:01:23.766Z,-2.74
2023-01-29T05:02:23.696Z,-2.66
2023-01-29T05:03:23.695Z,-2.71
2023-01-29T05:04:23.702Z,-2.76
2023-01-29T05:05:23.686Z,-2.73
2023-01-29T05:06:23.698Z,-2.73
2023-01-29T05:07:23.665Z,-2.77
2023-01-29T05:08:23.658Z,-2.81
2023-01-29T05:09:23.664Z,-2.69
2023-01-29T05:10:23.643Z,-2.80
2023-01-29T05:11:23.663Z,-2.80
2023-01-29T05:12:23.625Z,-2.80
2023-01-29T05:13:23.626Z,-2.77
2023-01-29T05:14:23.610Z,-2.83
2023-01-29T05:15:24.608Z,-2.69
2023-01-29T05:16:23.683Z,-2.71
2023-01-29T05:17:23.586Z,-2.78
2023-01-29T05:18:23.601Z,-2.77
2023-01-29T05:19:23.576Z,-2.74
2023-01-29T05:20:23.567Z,-2.74
2023-01-29T05:21:23.586Z,-2.63
2023-01-29T05:22:23.550Z,-2.73
2023-01-29T05:23:23.544Z,-2.70
2023-01-29T05:24:23.587Z,-2.73
2023-01-29T05:25:23.530Z,-2.71
2023-01-29T05:26:23.546Z,-2.74
2023-01-29T05:27:23.516Z,-2.73
2023-01-29T05:28:23.510Z,-2.65
2023-01-29T05:29:23.501Z,-2.76
2023-01-29T05:30:23.492Z,-2.69
2023-01-29T05:31:23.580Z,-2.58
2023-01-29T05:32:23.490Z,-2.77
2023-01-29T05:33:23.475Z,-2.70
2023-01-29T05:34:23.468Z,-2.76
2023-01-29T05:35:23.456Z,-2.63
2023-01-29T05:36:23.481Z,-2.71
2023-01-29T05:37:23.452Z,-2.73
2023-01-29T05:38:23.453Z,-2.70
2023-01-29T05:39:23.429Z,-2.73
2023-01-29T05:40:23.419Z,-2.73
2023-01-29T05:41:23.441Z,-2.78
2023-01-29T05:42:23.403Z,-2.77
2023-01-29T05:43:23.417Z,-2.73
2023-01-29T05:44:23.413Z,-2.73
2023-01-29T05:45:23.385Z,-2.71
2023-01-29T05:46:23.483Z,-2.88
2023-01-29T05:47:23.369Z,-2.83
2023-01-29T05:48:23.363Z,-2.65
2023-01-29T05:49:23.359Z,-2.70
2023-01-29T05:50:23.346Z,-2.73
2023-01-29T05:51:23.382Z,-2.71
2023-01-29T05:52:23.333Z,-2.62
2023-01-29T05:53:23.328Z,-2.63
2023-01-29T05:54:23.326Z,-2.69
2023-01-29T05:55:23.313Z,-2.62
2023-01-29T05:56:23.340Z,-2.78
2023-01-29T05:57:23.306Z,-2.65
2023-01-29T05:58:23.288Z,-2.60
2023-01-29T05:59:23.287Z,-2.59
2023-01-29T06:00:23.273Z,-2.70
2023-01-29T06:01:23.295Z,-2.65
2023-01-29T06:02:23.258Z,-2.69
2023-01-29T06:03:23.251Z,-2.63
2023-01-29T06:04:23.244Z,-2.60
2023-01-29T06:05:23.237Z,-2.60
2023-01-29T06:06:23.257Z,-2.59
2023-01-29T06:07:23.224Z,-2.63
2023-01-29T06:08:23.213Z,-2.74
2023-01-29T06:09:23.201Z,-2.78
2023-01-29T06:10:23.200Z,-2.63
2023-01-29T06:11:23.223Z,-2.70
2023-01-29T06:12:23.181Z,-2.66
2023-01-29T06:13:23.768Z,-2.70
2023-01-29T06:14:24.171Z,-2.56
2023-01-29T06:15:23.161Z,-2.59
2023-01-29T06:16:23.225Z,-2.60
2023-01-29T06:17:23.162Z,-2.63
2023-01-29T06:18:23.152Z,-2.66
2023-01-29T06:19:23.132Z,-2.69
2023-01-29T06:20:23.125Z,-2.58
2023-01-29T06:21:23.151Z,-2.60
2023-01-29T06:22:23.110Z,-2.59
2023-01-29T06:23:23.101Z,-2.56
2023-01-29T06:24:23.111Z,-2.66
2023-01-29T06:25:23.087Z,-2.53
2023-01-29T06:26:23.110Z,-2.60
2023-01-29T06:27:23.074Z,-2.65
2023-01-29T06:28:23.082Z,-2.53
2023-01-29T06:29:23.073Z,-2.62
2023-01-29T06:30:23.055Z,-2.63
2023-01-29T06:31:37.334Z,-2.59
2023-01-29T06:32:25.072Z,-2.70
2023-01-29T06:33:23.037Z,-2.69
2023-01-29T06:34:23.033Z,-2.66
2023-01-29T06:35:23.014Z,-2.70
2023-01-29T06:36:23.015Z,-2.66
2023-01-29T06:37:23.032Z,-2.62
2023-01-29T06:38:22.997Z,-2.65
2023-01-29T06:39:22.989Z,-2.73
2023-01-29T06:40:22.976Z,-2.78
2023-01-29T06:41:23.975Z,-2.78
2023-01-29T06:42:22.994Z,-2.80
2023-01-29T06:43:22.960Z,-2.78
2023-01-29T06:44:22.959Z,-2.80
2023-01-29T06:45:22.981Z,-2.81
2023-01-29T06:46:22.938Z,-2.76
2023-01-29T06:47:22.953Z,-2.89
2023-01-29T06:48:22.921Z,-2.76
2023-01-29T06:49:22.913Z,-2.78
2023-01-29T06:50:22.911Z,-2.91
2023-01-29T06:51:22.921Z,-2.84
2023-01-29T06:52:22.921Z,-2.88
2023-01-29T06:53:22.897Z,-2.78
2023-01-29T06:54:22.931Z,-2.89
2023-01-29T06:55:22.873Z,-2.78
2023-01-29T06:56:22.881Z,-2.91
2023-01-29T06:57:22.855Z,-2.73
2023-01-29T06:58:22.853Z,-2.84
2023-01-29T06:59:22.875Z,-2.92
2023-01-29T07:00:22.838Z,-2.89
2023-01-29T07:01:35.028Z,-2.98
2023-01-29T07:02:24.878Z,-2.97
2023-01-29T07:03:22.808Z,-3.01
2023-01-29T07:04:22.829Z,-3.06
2023-01-29T07:05:22.817Z,-3.09
2023-01-29T07:06:22.792Z,-3.09
2023-01-29T07:07:22.788Z,-3.15
2023-01-29T07:08:22.779Z,-3.09
2023-01-29T07:09:22.797Z,-3.15
2023-01-29T07:10:22.759Z,-3.15
2023-01-29T07:11:22.758Z,-3.12
2023-01-29T07:12:22.747Z,-3.13
2023-01-29T07:13:22.744Z,-3.10
2023-01-29T07:14:22.760Z,-3.13
2023-01-29T07:15:22.733Z,-3.16
2023-01-29T07:16:22.770Z,-3.19
2023-01-29T07:17:22.720Z,-3.23
2023-01-29T07:18:22.707Z,-3.15
2023-01-29T07:19:22.723Z,-3.16
2023-01-29T07:20:22.697Z,-3.16
2023-01-29T07:21:22.691Z,-3.07
2023-01-29T07:22:22.678Z,-3.13
2023-01-29T07:23:22.674Z,-3.15
2023-01-29T07:24:22.768Z,-3.23
2023-01-29T07:25:22.653Z,-3.20
2023-01-29T07:26:22.648Z,-3.22
2023-01-29T07:27:22.637Z,-3.19
2023-01-29T07:28:22.629Z,-3.27
2023-01-29T07:29:22.655Z,-3.25
2023-01-29T07:30:22.633Z,-3.33
2023-01-29T07:31:22.688Z,-3.28
2023-01-29T07:32:22.661Z,-3.23
2023-01-29T07:33:22.600Z,-3.31
2023-01-29T07:34:22.634Z,-3.25
2023-01-29T07:35:22.593Z,-3.30
2023-01-29T07:36:22.575Z,-3.13
2023-01-29T07:37:22.583Z,-3.17
2023-01-29T07:38:22.582Z,-3.10
2023-01-29T07:39:22.579Z,-2.99
2023-01-29T07:40:22.541Z,-3.06
2023-01-29T07:41:22.537Z,-2.94
2023-01-29T07:42:22.533Z,-2.89
2023-01-29T07:43:22.521Z,-2.80
2023-01-29T07:44:22.515Z,-2.88
2023-01-29T07:45:23.540Z,-2.81
2023-01-29T07:46:22.497Z,-2.73
2023-01-29T07:47:22.489Z,-2.66
2023-01-29T07:48:22.487Z,-2.63
2023-01-29T07:49:22.474Z,-2.44
2023-01-29T07:50:22.504Z,-2.04
2023-01-29T07:51:22.459Z,-1.30
2023-01-29T07:52:23.457Z,-0.70
2023-01-29T07:53:22.453Z,-0.25
2023-01-29T07:54:22.444Z,-0.03
2023-01-29T07:55:22.464Z,-0.18
2023-01-29T07:56:22.423Z,-0.15
2023-01-29T07:57:22.420Z,-0.13
2023-01-29T07:58:22.409Z,0.03
2023-01-29T07:59:22.407Z,0.12
2023-01-29T08:00:22.414Z,0.16
2023-01-29T08:01:22.419Z,0.15
2023-01-29T08:02:22.404Z,0.19
2023-01-29T08:03:22.373Z,0.10
2023-01-29T08:04:22.368Z,0.28
2023-01-29T08:05:22.388Z,0.37
2023-01-29T08:06:22.349Z,0.34
2023-01-29T08:07:22.354Z,0.34
2023-01-29T08:08:22.342Z,0.15
2023-01-29T08:09:22.323Z,-0.21
2023-01-29T08:10:22.349Z,-0.64
2023-01-29T08:11:22.321Z,-0.75
2023-01-29T08:12:22.316Z,-0.85
2023-01-29T08:13:22.305Z,-1.02
2023-01-29T08:14:22.289Z,-1.15
2023-01-29T08:15:22.315Z,-1.25
2023-01-29T08:16:22.335Z,-1.15
2023-01-29T08:17:22.278Z,-1.19
2023-01-29T08:18:22.264Z,-1.23
2023-01-29T08:19:22.255Z,-1.22
2023-01-29T08:20:22.274Z,-1.27
2023-01-29T08:21:22.251Z,-1.14
2023-01-29T08:22:22.235Z,-1.23
2023-01-29T08:23:22.228Z,-1.19
2023-01-29T08:24:22.236Z,-1.22
2023-01-29T08:25:22.820Z,-1.41
2023-01-29T08:26:22.201Z,-1.27
2023-01-29T08:27:23.198Z,-1.40
2023-01-29T08:28:22.192Z,-1.46
2023-01-29T08:29:22.180Z,-1.48
2023-01-29T08:30:22.192Z,-1.53
2023-01-29T08:31:22.267Z,-1.53
2023-01-29T08:32:22.161Z,-1.48
2023-01-29T08:33:29.760Z,-1.43
2023-01-29T08:34:24.149Z,-1.48
2023-01-29T08:35:22.163Z,-1.48
2023-01-29T08:36:22.132Z,-1.48
2023-01-29T08:37:22.119Z,-1.47
2023-01-29T08:38:22.120Z,-1.48
2023-01-29T08:39:22.112Z,-1.43
2023-01-29T08:40:22.121Z,-1.43
2023-01-29T08:41:22.093Z,-1.54
2023-01-29T08:42:22.085Z,-1.47
2023-01-29T08:43:22.078Z,-1.48
2023-01-29T08:44:22.067Z,-1.44
2023-01-29T08:45:22.085Z,-1.41
2023-01-29T08:46:22.086Z,-1.41
2023-01-29T08:47:22.049Z,-1.40
2023-01-29T08:48:22.042Z,-1.38
2023-01-29T08:49:22.031Z,-1.47
2023-01-29T08:50:22.055Z,-1.33
2023-01-29T08:51:22.012Z,-1.46
2023-01-29T08:52:22.015Z,-1.41
2023-01-29T08:53:22.000Z,-1.46
2023-01-29T08:54:22.011Z,-1.54
2023-01-29T08:55:22.014Z,-1.46
2023-01-29T08:56:21.973Z,-1.40
2023-01-29T08:57:21.964Z,-1.43
2023-01-29T08:58:21.965Z,-1.40
2023-01-29T08:59:21.953Z,-1.40
2023-01-29T09:00:21.952Z,-1.40
2023-01-29T09:01:21.978Z,-1.25
2023-01-29T09:02:21.978Z,-1.41
2023-01-29T09:03:21.936Z,-1.35
2023-01-29T09:04:21.913Z,-1.33
2023-01-29T09:05:21.923Z,-1.35
2023-01-29T09:06:21.933Z,-1.35
2023-01-29T09:07:21.893Z,-1.38
2023-01-29T09:08:21.889Z,-1.26
2023-01-29T09:09:21.881Z,-1.41
2023-01-29T09:10:21.876Z,-1.38
2023-01-29T09:11:21.892Z,-1.29
2023-01-29T09:12:21.856Z,-1.27
2023-01-29T09:13:21.848Z,-1.23
2023-01-29T09:14:21.839Z,-1.20
2023-01-29T09:15:21.848Z,-1.19
2023-01-29T09:16:21.864Z,-1.26
2023-01-29T09:17:21.830Z,-1.17
2023-01-29T09:18:21.824Z,-1.17
2023-01-29T09:19:21.814Z,-1.11
2023-01-29T09:20:21.834Z,-0.99
2023-01-29T09:21:21.831Z,-0.85
2023-01-29T09:22:21.793Z,-0.74
2023-01-29T09:23:21.788Z,-0.82
2023-01-29T09:24:21.783Z,-0.80
2023-01-29T09:25:21.768Z,-0.70
2023-01-29T09:26:21.814Z,-0.67
2023-01-29T09:27:21.750Z,-0.53
2023-01-29T09:28:21.746Z,-0.38
2023-01-29T09:29:21.734Z,-0.29
2023-01-29T09:30:21.732Z,-0.25
2023-01-29T09:31:21.892Z,-0.25
2023-01-29T09:32:49.695Z,-0.07
2023-01-29T09:33:23.701Z,-0.23
2023-01-29T09:34:21.702Z,-0.15
2023-01-29T09:35:21.701Z,-0.15
2023-01-29T09:36:21.711Z,-0.06
2023-01-29T09:37:22.099Z,-0.03
2023-01-29T09:38:21.744Z,-0.03
2023-01-29T09:39:21.661Z,-0.06
2023-01-29T09:40:21.694Z,0.07
2023-01-29T09:41:21.673Z,0.04
2023-01-29T09:42:21.642Z,0.12
2023-01-29T09:43:21.635Z,0.00
2023-01-29T09:44:21.621Z,-0.14
2023-01-29T09:45:21.619Z,0.01
2023-01-29T09:46:21.663Z,-0.06
2023-01-29T09:47:21.597Z,-0.21
2023-01-29T09:48:21.599Z,-0.39
2023-01-29T09:49:21.592Z,-0.28
2023-01-29T09:50:21.583Z,-0.21
2023-01-29T09:51:21.600Z,-0.23
2023-01-29T09:52:21.586Z,-0.36
2023-01-29T09:53:21.564Z,-0.25
2023-01-29T09:54:21.550Z,-0.28
2023-01-29T09:55:21.551Z,-0.36
2023-01-29T09:56:21.576Z,-0.36
2023-01-29T09:57:21.526Z,-0.35
2023-01-29T09:58:21.535Z,-0.28
2023-01-29T09:59:21.510Z,-0.32
2023-01-29T10:00:21.500Z,-0.31
2023-01-29T10:01:21.612Z,-0.28
2023-01-29T10:02:21.493Z,-0.31
2023-01-29T10:03:21.480Z,-0.14
2023-01-29T10:04:21.496Z,-0.14
2023-01-29T10:05:22.467Z,0.00
2023-01-29T10:06:21.489Z,-0.06
2023-01-29T10:07:21.451Z,0.07
2023-01-29T10:08:21.447Z,0.12
2023-01-29T10:09:21.442Z,0.22
2023-01-29T10:10:21.495Z,0.25
2023-01-29T10:11:21.463Z,0.32
2023-01-29T10:12:21.411Z,0.31
2023-01-29T10:13:21.411Z,0.41
2023-01-29T10:14:21.407Z,0.43
2023-01-29T10:15:21.396Z,0.50
2023-01-29T10:16:21.415Z,0.37
2023-01-29T10:17:21.414Z,0.39
2023-01-29T10:18:21.374Z,0.44
2023-01-29T10:19:21.375Z,0.39
2023-01-29T10:20:21.357Z,0.36
2023-01-29T10:21:21.374Z,0.39
2023-01-29T10:22:21.356Z,0.32
2023-01-29T10:23:21.335Z,0.37
2023-01-29T10:24:21.329Z,0.39
2023-01-29T10:25:21.363Z,0.39
2023-01-29T10:26:21.398Z,0.34
2023-01-29T10:27:21.334Z,0.34
2023-01-29T10:28:21.303Z,0.29
2023-01-29T10:29:21.289Z,0.41
2023-01-29T10:30:21.278Z,0.32
2023-01-29T10:31:21.351Z,0.46
2023-01-29T10:32:21.288Z,0.39
2023-01-29T10:33:21.274Z,0.40
2023-01-29T10:34:21.264Z,0.32
2023-01-29T10:35:21.249Z,0.39
2023-01-29T10:36:21.237Z,0.44
2023-01-29T10:37:21.251Z,0.37
2023-01-29T10:38:21.244Z,0.44
2023-01-29T10:39:21.238Z,0.52
2023-01-29T10:40:21.211Z,0.49
2023-01-29T10:41:21.205Z,0.50
2023-01-29T10:42:21.220Z,0.50
2023-01-29T10:43:21.190Z,0.46
2023-01-29T10:44:21.189Z,0.46
2023-01-29T10:45:21.172Z,0.60
2023-01-29T10:46:21.169Z,0.69
2023-01-29T10:47:21.275Z,0.78
2023-01-29T10:48:21.151Z,0.76
2023-01-29T10:49:21.135Z,0.77
2023-01-29T10:50:21.139Z,0.70
2023-01-29T10:51:21.124Z,0.68
2023-01-29T10:52:21.152Z,0.65
2023-01-29T10:53:21.125Z,0.60
2023-01-29T10:54:21.102Z,0.68
2023-01-29T10:55:21.090Z,0.69
2023-01-29T10:56:23.425Z,0.76
2023-01-29T10:57:22.105Z,0.78
2023-01-29T10:58:21.077Z,0.78
2023-01-29T10:59:21.068Z,0.77
2023-01-29T11:00:21.058Z,0.92
2023-01-29T11:01:21.076Z,0.92
2023-01-29T11:02:21.117Z,0.94
2023-01-29T11:03:27.844Z,0.99
2023-01-29T11:04:23.029Z,1.20
2023-01-29T11:05:21.018Z,1.22
2023-01-29T11:06:21.007Z,1.30
2023-01-29T11:07:21.032Z,1.32
2023-01-29T11:08:20.990Z,1.35
2023-01-29T11:09:20.985Z,1.35
2023-01-29T11:10:20.972Z,1.32
2023-01-29T11:11:20.967Z,1.32
2023-01-29T11:12:22.621Z,1.32
2023-01-29T11:13:20.959Z,1.32
2023-01-29T11:14:20.939Z,1.40
2023-01-29T11:15:20.950Z,1.45
2023-01-29T11:16:20.923Z,1.34
2023-01-29T11:17:20.983Z,1.26
2023-01-29T11:18:20.905Z,1.19
2023-01-29T11:19:20.897Z,1.37
2023-01-29T11:20:20.895Z,1.41
2023-01-29T11:21:20.884Z,1.42
2023-01-29T11:22:20.875Z,1.60
2023-01-29T11:23:20.892Z,1.63
2023-01-29T11:24:20.857Z,1.76
2023-01-29T11:25:20.847Z,1.73
2023-01-29T11:26:20.917Z,1.74
2023-01-29T11:27:20.838Z,1.73
2023-01-29T11:28:20.855Z,1.76
2023-01-29T11:29:20.821Z,1.78
2023-01-29T11:30:20.816Z,1.85
2023-01-29T11:31:20.899Z,1.95
2023-01-29T11:32:20.797Z,1.91
2023-01-29T11:33:20.821Z,1.94
2023-01-29T11:34:20.786Z,1.81
2023-01-29T11:35:20.772Z,1.85
2023-01-29T11:36:20.761Z,1.84
2023-01-29T11:37:20.772Z,1.74
2023-01-29T11:38:20.769Z,1.70
2023-01-29T11:39:20.745Z,1.60
2023-01-29T11:40:20.728Z,1.59
2023-01-29T11:41:20.723Z,1.56
2023-01-29T11:42:20.719Z,1.45
2023-01-29T11:43:20.746Z,1.31
2023-01-29T11:44:20.701Z,1.30
2023-01-29T11:45:20.694Z,1.32
2023-01-29T11:46:20.709Z,1.34
2023-01-29T11:47:20.701Z,1.30
2023-01-29T11:48:20.721Z,1.28
2023-01-29T11:49:21.117Z,1.23
2023-01-29T11:50:21.655Z,1.24
2023-01-29T11:51:20.651Z,1.23
2023-01-29T11:52:20.779Z,1.30
2023-01-29T11:53:20.670Z,1.26
2023-01-29T11:54:20.631Z,1.28
2023-01-29T11:55:20.630Z,1.28
2023-01-29T11:56:20.616Z,1.30
2023-01-29T11:57:20.601Z,1.22
2023-01-29T11:58:20.625Z,1.34
2023-01-29T11:59:20.587Z,1.30
2023-01-29T12:00:20.583Z,1.34
2023-01-29T12:01:20.574Z,1.41
2023-01-29T12:02:20.571Z,1.52
2023-01-29T12:03:21.404Z,1.62
2023-01-29T12:04:20.554Z,1.76
2023-01-29T12:05:20.540Z,1.74
2023-01-29T12:06:20.549Z,1.66
2023-01-29T12:07:20.531Z,1.63
2023-01-29T12:08:20.543Z,1.62
2023-01-29T12:09:20.514Z,1.66
2023-01-29T12:10:20.500Z,1.71
2023-01-29T12:11:20.502Z,1.73
2023-01-29T12:12:20.488Z,1.63
2023-01-29T12:13:20.507Z,1.49
2023-01-29T12:14:20.483Z,1.53
2023-01-29T12:15:20.470Z,1.63
2023-01-29T12:16:20.507Z,1.73
2023-01-29T12:17:20.450Z,1.66
2023-01-29T12:18:20.466Z,1.68
2023-01-29T12:19:20.437Z,1.60
2023-01-29T12:20:20.423Z,1.71
2023-01-29T12:21:20.422Z,1.77
2023-01-29T12:22:20.411Z,1.76
2023-01-29T12:23:20.426Z,1.85
2023-01-29T12:24:20.397Z,1.89
2023-01-29T12:25:20.385Z,1.97
2023-01-29T12:26:20.386Z,1.95
2023-01-29T12:27:20.370Z,1.94
2023-01-29T12:28:20.387Z,2.00
2023-01-29T12:29:20.357Z,2.06
2023-01-29T12:30:20.349Z,2.13
2023-01-29T12:31:20.366Z,2.11
2023-01-29T12:32:20.333Z,2.11
2023-01-29T12:33:20.345Z,2.08
2023-01-29T12:34:20.309Z,1.99
2023-01-29T12:35:20.312Z,2.02
2023-01-29T12:36:20.295Z,1.91
2023-01-29T12:37:20.286Z,1.99
2023-01-29T12:38:20.313Z,2.02
2023-01-29T12:39:20.265Z,1.94
2023-01-29T12:40:20.602Z,1.97
2023-01-29T12:41:20.266Z,1.99
2023-01-29T12:42:20.252Z,1.88
2023-01-29T12:43:20.281Z,1.92
2023-01-29T12:44:20.234Z,1.99
2023-01-29T12:45:20.237Z,2.07
2023-01-29T12:46:20.224Z,2.13
2023-01-29T12:47:20.209Z,2.25
2023-01-29T12:48:20.234Z,2.24
2023-01-29T12:49:20.195Z,2.17
2023-01-29T12:50:20.185Z,2.26
2023-01-29T12:51:20.174Z,2.42
2023-01-29T12:52:20.175Z,2.49
2023-01-29T12:53:20.165Z,2.53
2023-01-29T12:54:20.184Z,2.60
2023-01-29T12:55:20.148Z,2.65
2023-01-29T12:56:20.144Z,2.56
2023-01-29T12:57:20.142Z,2.53
2023-01-29T12:58:20.126Z,2.39